createdAt,value
2023-02-18T00:00:19.181Z,12.41
2023-02-18T00:05:23.125Z,12.44
2023-02-18T00:10:26.047Z,12.40
2023-02-18T00:15:29.030Z,12.37
2023-02-18T00:20:33.665Z,12.37
2023-02-18T00:25:36.594Z,12.39
2023-02-18T00:30:44.194Z,12.45
2023-02-18T00:35:47.640Z,12.52
2023-02-18T00:40:50.656Z,12.55
2023-02-18T00:45:54.295Z,12.54
2023-02-18T00:50:57.295Z,12.51
2023-02-18T00:56:01.475Z,12.52
2023-02-18T01:01:07.695Z,12.55
2023-02-18T01:06:12.289Z,12.59
2023-02-18T01:11:15.415Z,12.62
2023-02-18T01:16:18.550Z,12.62
2023-02-18T01:21:21.492Z,12.69
2023-02-18T01:26:24.473Z,12.72
2023-02-18T01:31:27.855Z,12.80
2023-02-18T01:36:31.042Z,12.81
2023-02-18T01:41:33.882Z,12.81
2023-02-18T01:46:37.485Z,12.78
2023-02-18T01:51:47.273Z,12.72
2023-02-18T01:57:05.325Z,12.68
2023-02-18T02:02:16.934Z,12.69
2023-02-18T02:07:23.694Z,12.67
2023-02-18T02:12:45.313Z,12.66
2023-02-18T02:18:40.526Z,12.62
2023-02-18T02:24:20.673Z,12.58
2023-02-18T02:29:44.768Z,12.63
2023-02-18T02:35:07.206Z,12.65
2023-02-18T02:40:09.953Z,12.66
2023-02-18T02:46:07.444Z,12.70
2023-02-18T02:51:45.053Z,12.71
2023-02-18T02:56:48.676Z,12.74
2023-02-18T03:02:21.927Z,12.77
2023-02-18T03:08:01.612Z,12.73
2023-02-18T03:13:19.927Z,12.69
2023-02-18T03:19:02.185Z,12.68
2023-02-18T03:24:16.706Z,12.69
2023-02-18T03:29:21.555Z,12.67
2023-02-18T03:34:33.674Z,12.67
2023-02-18T03:39:39.393Z,12.65
2023-02-18T03:44:42.323Z,12.66
2023-02-18T03:49:45.887Z,12.66
2023-02-18T03:54:48.982Z,12.65
2023-02-18T03:59:51.735Z,12.73
2023-02-18T04:04:54.726Z,12.77
2023-02-18T04:09:57.693Z,12.78
2023-02-18T04:15:00.451Z,12.75
2023-02-18T04:20:04.734Z,12.69
2023-02-18T04:25:08.687Z,12.65
2023-02-18T04:30:12.641Z,12.63
2023-02-18T04:35:15.835Z,12.55
2023-02-18T04:40:18.897Z,12.52
2023-02-18T04:45:21.841Z,12.43
2023-02-18T04:50:24.822Z,12.28
2023-02-18T04:55:27.725Z,12.16
2023-02-18T05:00:30.559Z,12.07
2023-02-18T05:05:33.616Z,11.98
2023-02-18T05:10:39.201Z,11.90
2023-02-18T05:15:42.461Z,11.83
2023-02-18T05:20:45.441Z,11.74
2023-02-18T05:25:48.607Z,11.60
2023-02-18T05:30:51.535Z,11.46
2023-02-18T05:35:54.885Z,11.40
2023-02-18T05:40:57.950Z,11.37
2023-02-18T05:46:01.201Z,11.34
2023-02-18T05:51:05.162Z,11.27
2023-02-18T05:56:08.651Z,11.16
2023-02-18T06:01:11.754Z,11.04
2023-02-18T06:06:14.968Z,10.91
2023-02-18T06:11:18.081Z,10.87
2023-02-18T06:16:21.226Z,10.85
2023-02-18T06:21:24.646Z,10.83
2023-02-18T06:26:27.724Z,10.83
2023-02-18T06:31:30.833Z,10.84
2023-02-18T06:36:33.904Z,10.80
2023-02-18T06:41:36.898Z,10.81
2023-02-18T06:46:40.062Z,10.91
2023-02-18T06:51:43.067Z,11.05
2023-02-18T06:56:46.049Z,11.15
2023-02-18T07:01:49.007Z,11.32
2023-02-18T07:06:52.104Z,11.51
2023-02-18T07:11:55.070Z,11.60
2023-02-18T07:16:58.279Z,11.51
2023-02-18T07:22:01.632Z,11.43
2023-02-18T07:27:05.572Z,11.41
2023-02-18T07:32:08.538Z,11.39
2023-02-18T07:37:12.506Z,11.39
2023-02-18T07:42:15.672Z,11.41
2023-02-18T07:47:21.573Z,11.49
2023-02-18T07:52:24.990Z,11.58
2023-02-18T07:57:27.668Z,11.65
2023-02-18T08:02:30.480Z,11.79
2023-02-18T08:07:33.266Z,12.17
2023-02-18T08:12:36.229Z,12.40
2023-02-18T08:17:39.087Z,12.41
2023-02-18T08:22:42.076Z,12.40
2023-02-18T08:27:45.029Z,12.38
2023-02-18T08:32:48.041Z,12.36
2023-02-18T08:37:53.110Z,12.46
2023-02-18T08:42:57.462Z,12.57
2023-02-18T08:48:18.286Z,12.66
2023-02-18T08:53:23.224Z,12.63
2023-02-18T08:58:26.213Z,12.90
2023-02-18T09:03:29.416Z,13.04
2023-02-18T09:08:32.410Z,13.18
2023-02-18T09:13:35.392Z,13.28
2023-02-18T09:18:38.932Z,13.26
2023-02-18T09:23:42.982Z,13.23
2023-02-18T09:28:45.878Z,13.26
2023-02-18T09:33:56.588Z,13.44
2023-02-18T09:39:00.214Z,13.65
2023-02-18T09:44:11.735Z,14.23
2023-02-18T09:49:26.465Z,14.65
2023-02-18T09:54:30.050Z,14.77
2023-02-18T09:59:33.073Z,14.50
2023-02-18T10:04:44.980Z,14.24
2023-02-18T10:09:51.999Z,14.10
2023-02-18T10:15:01.368Z,13.88
2023-02-18T10:20:07.933Z,13.74
2023-02-18T10:25:20.696Z,13.56
2023-02-18T10:30:55.635Z,13.37
2023-02-18T10:36:30.255Z,13.19
2023-02-18T10:42:18.225Z,13.05
2023-02-18T10:47:30.948Z,12.92
2023-02-18T10:52:47.573Z,12.74
2023-02-18T10:57:55.662Z,12.64
2023-02-18T11:03:38.949Z,12.52
2023-02-18T11:08:45.415Z,12.38
2023-02-18T11:13:59.020Z,12.31
2023-02-18T11:19:04.506Z,12.29
2023-02-18T11:24:15.366Z,12.28
2023-02-18T11:29:20.163Z,12.35
2023-02-18T11:34:33.236Z,12.44
2023-02-18T11:39:36.610Z,12.55
2023-02-18T11:44:53.487Z,12.73
2023-02-18T11:50:10.833Z,12.86
2023-02-18T11:55:22.602Z,12.99
2023-02-18T12:00:40.667Z,13.21
2023-02-18T12:05:45.836Z,13.41
2023-02-18T12:10:56.056Z,13.63
2023-02-18T12:16:26.886Z,13.98
2023-02-18T12:21:53.424Z,14.35
2023-02-18T12:27:22.703Z,14.61
2023-02-18T12:32:56.715Z,14.91
2023-02-18T12:38:11.193Z,15.23
2023-02-18T12:43:48.837Z,15.46
2023-02-18T12:49:21.580Z,15.53
2023-02-18T12:55:08.335Z,15.36
2023-02-18T13:00:36.126Z,14.97
2023-02-18T13:05:54.609Z,14.93
2023-02-18T13:11:12.823Z,14.97
2023-02-18T13:16:19.908Z,15.18
2023-02-18T13:21:24.051Z,15.36
2023-02-18T13:26:31.389Z,15.57
2023-02-18T13:32:10.633Z,15.62
2023-02-18T13:37:37.375Z,15.75
2023-02-18T13:42:40.377Z,15.63
2023-02-18T13:47:49.849Z,15.52
2023-02-18T13:53:08.081Z,15.43
2023-02-18T13:58:23.811Z,15.33
2023-02-18T14:03:36.213Z,15.34
2023-02-18T14:08:40.497Z,15.18
2023-02-18T14:14:25.857Z,15.03
2023-02-18T14:19:30.189Z,14.89
2023-02-18T14:24:49.950Z,14.95
2023-02-18T14:29:53.078Z,15.01
2023-02-18T14:35:20.986Z,15.11
2023-02-18T14:40:42.902Z,15.33
2023-02-18T14:46:33.278Z,15.31
2023-02-18T14:51:36.551Z,15.31
2023-02-18T14:56:58.621Z,15.18
2023-02-18T15:02:01.813Z,14.99
2023-02-18T15:07:10.019Z,14.79
2023-02-18T15:12:19.730Z,14.69
2023-02-18T15:17:29.527Z,14.57
2023-02-18T15:22:35.513Z,14.46
2023-02-18T15:27:44.469Z,14.38
2023-02-18T15:32:54.296Z,14.24
2023-02-18T15:38:00.323Z,14.12
2023-02-18T15:43:06.559Z,13.97
2023-02-18T15:48:45.377Z,13.78
2023-02-18T15:53:52.575Z,13.60
2023-02-18T15:59:35.548Z,13.40
2023-02-18T16:04:41.271Z,13.23
2023-02-18T16:09:44.243Z,13.04
2023-02-18T16:14:50.445Z,12.84
2023-02-18T16:20:18.348Z,12.62
2023-02-18T16:25:41.344Z,12.30
2023-02-18T16:30:46.244Z,12.08
2023-02-18T16:35:50.726Z,11.88
2023-02-18T16:40:55.326Z,11.72
2023-02-18T16:46:06.298Z,11.55
2023-02-18T16:51:24.004Z,11.30
2023-02-18T16:56:33.220Z,11.08
2023-02-18T17:01:44.859Z,10.85
2023-02-18T17:06:48.735Z,10.64
2023-02-18T17:11:55.457Z,10.46
2023-02-18T17:16:58.941Z,10.28
2023-02-18T17:22:01.839Z,10.09
2023-02-18T17:27:04.582Z,9.90
2023-02-18T17:32:08.595Z,9.65
2023-02-18T17:37:14.733Z,9.35
2023-02-18T17:42:17.769Z,9.09
2023-02-18T17:47:20.770Z,8.85
2023-02-18T17:52:31.212Z,8.62
2023-02-18T17:57:34.130Z,8.42
2023-02-18T18:02:37.568Z,8.45
2023-02-18T18:07:40.573Z,8.72
2023-02-18T18:12:44.917Z,9.18
2023-02-18T18:17:48.204Z,9.61
2023-02-18T18:22:54.891Z,9.93
2023-02-18T18:27:58.423Z,10.27
2023-02-18T18:33:02.524Z,10.59
2023-02-18T18:38:06.366Z,10.77
2023-02-18T18:43:21.236Z,10.89
2023-02-18T18:48:24.843Z,11.02
2023-02-18T18:53:32.125Z,11.11
2023-02-18T18:58:35.235Z,11.20
2023-02-18T19:03:38.601Z,11.19
2023-02-18T19:08:41.857Z,11.23
2023-02-18T19:13:45.987Z,11.15
2023-02-18T19:18:49.152Z,11.01
2023-02-18T19:23:52.099Z,10.92
2023-02-18T19:28:54.934Z,10.84
2023-02-18T19:33:57.807Z,10.86
2023-02-18T19:39:00.780Z,10.90
2023-02-18T19:44:04.523Z,10.97
2023-02-18T19:49:07.555Z,11.05
2023-02-18T19:54:10.537Z,11.12
2023-02-18T19:59:13.523Z,11.18
2023-02-18T20:04:17.012Z,11.18
2023-02-18T20:09:20.179Z,11.18
2023-02-18T20:14:23.990Z,11.16
2023-02-18T20:19:30.915Z,11.14
2023-02-18T20:24:35.084Z,11.04
2023-02-18T20:29:38.334Z,10.91
2023-02-18T20:34:43.732Z,10.92
2023-02-18T20:39:46.723Z,10.99
2023-02-18T20:44:51.555Z,10.96
2023-02-18T20:49:54.599Z,10.92
2023-02-18T20:54:57.640Z,10.85
2023-02-18T21:00:00.727Z,11.09
2023-02-18T21:05:04.108Z,11.36
2023-02-18T21:10:07.910Z,11.67
2023-02-18T21:15:10.977Z,11.95
2023-02-18T21:20:14.046Z,12.06
2023-02-18T21:25:17.007Z,12.12
2023-02-18T21:30:20.458Z,12.29
2023-02-18T21:35:25.188Z,12.47
2023-02-18T21:40:28.550Z,12.52
2023-02-18T21:45:31.677Z,12.53
2023-02-18T21:50:34.596Z,12.51
2023-02-18T21:55:37.587Z,12.47
2023-02-18T22:00:40.507Z,12.43
2023-02-18T22:05:44.364Z,12.38
2023-02-18T22:10:47.320Z,12.23
2023-02-18T22:15:57.779Z,12.08
2023-02-18T22:21:04.356Z,11.93
2023-02-18T22:26:09.624Z,11.78
2023-02-18T22:31:14.239Z,11.63
2023-02-18T22:36:19.502Z,11.55
2023-02-18T22:41:24.801Z,11.37
2023-02-18T22:46:30.378Z,11.32
2023-02-18T22:51:37.883Z,11.23
2023-02-18T22:56:41.768Z,11.19
2023-02-18T23:01:53.001Z,11.15
2023-02-18T23:06:56.939Z,11.14
2023-02-18T23:12:00.362Z,11.10
2023-02-18T23:17:14.345Z,11.05
2023-02-18T23:22:24.817Z,10.95
2023-02-18T23:27:29.026Z,10.87
2023-02-18T23:32:32.088Z,10.79
2023-02-18T23:37:53.603Z,10.72
2023-02-18T23:42:56.637Z,10.63
2023-02-18T23:47:59.753Z,10.70
2023-02-18T23:53:02.561Z,10.69
2023-02-18T23:58:05.856Z,10.58
